Alpha, California Weather observations

Data are for observation ending at time listed.
 Day   Time    Ave.   Ave.  Ave.  Vector   Max.   Stn.    Total    Solar   Ave.   Snow 
  of    of     Air    Rel.  Wind   Wind    Wind   Baro.  Precip.   Rad.    Soil   Depth
Year   Day     Temp.  Hum.  Speed  Dir.    Gust   Pres.                    Temp.       
2014   (PST)    F      %     mph   deg.    mph     mb.     in.     W/m2     F      in. 
---------------------------------------------------------------------------------------  
 330    9:40   53.5    24    1.2   279      2.7   797.8    0.00      35    999.0  161.9
 330    9:50   53.9    24    0.9   293      3.1   797.8    0.00      96    999.0  161.9
 330   10:00   55.1    24    1.8   220      5.4   797.6    0.00     280    999.0  162.0
 330   10:10   55.8    24    1.3   270      3.2   797.6    0.00     292    999.0  162.0
 330   10:20   55.7    23    1.5   235      6.0   797.6    0.00     303    999.0  161.8
 330   10:30   56.0    24    2.0   240      6.5   797.6    0.00     312    999.0  161.1
 330   10:40   55.9    24    1.0   281      3.4   797.6    0.00     321    999.0  161.1
 330   10:50   56.1    22    1.4   291      3.9   797.4    0.00     328    999.0  161.4
 330   11:00   56.6    22    0.8   269      2.9   797.3    0.00     335    999.0  161.4
 330   11:10   56.8    22    1.4   303      4.2   797.2    0.00     340    999.0  161.7
 330   11:20   56.8    23    2.0   294      4.7   797.2    0.00     344    999.0  161.9
 330   11:30   56.7    23    1.7   280      6.1   797.1    0.00     347    999.0  162.0
 330   11:40   57.4    23    1.4   293      4.6   797.0    0.00     349    999.0  161.9
 330   11:50   58.1    23    1.4   284      4.7   796.8    0.00     349    999.0  161.9
 330   12:00   57.8    23    1.7   288      4.2   796.6    0.00     348    999.0  161.8
 330   12:10   57.7    23    1.2   294      3.9   796.5    0.00     346    999.0  161.9
 330   12:20   58.1    24    2.0   267      8.4   796.4    0.00     342    999.0  161.9
 330   12:30   58.2    24    1.9   280      5.6   796.3    0.00     338    999.0  161.9
 330   12:40   58.5    24    2.4   248      6.1   796.2    0.00     329    999.0  161.9
 330   12:50   58.6    23    2.3   257      5.7   796.1    0.00     319    999.0  161.9
 330   13:00   59.1    23    2.7   239      9.5   796.1    0.00     303    999.0  161.9
 330   13:10   58.9    23    2.9   240      7.9   796.0    0.00     311    999.0  161.9
 330   13:20   58.5    23    2.8   253      7.5   795.9    0.00     273    999.0  161.9
 330   13:30   58.0    23    3.7   231      7.5   795.9    0.00     285    999.0  162.0
 330   13:40   58.3    22    3.2   233      7.9   795.8    0.00     269    999.0  162.2
 330   13:50   58.3    23    3.7   223      7.8   795.8    0.00     259    999.0  162.1
 330   14:00   57.5    25    2.6   241      7.9   795.7    0.00     117    999.0  162.2
 330   14:10   57.6    27    2.6   239      6.1   795.7    0.00      90    999.0  162.2
 330   14:20   56.9    29    2.0   245      7.5   795.7    0.00      63    999.0  162.2
 330   14:30   56.1    31    2.5   255      6.5   795.7    0.00      56    999.0  162.2
 330   14:40   55.7    32    1.7   270      4.2   795.7    0.00      49    999.0  162.2
 330   14:50   55.7    34    2.1   258      5.3   795.6    0.00      44    999.0  162.2
 330   15:00   55.8    36    1.9   254      6.6   795.6    0.00      48    999.0  162.3
 330   15:10   56.6    35    2.4   244      5.3   795.6    0.00      41    999.0  162.3
 330   15:20   56.6    35    2.6   229      6.7   795.5    0.00      32    999.0  162.2
 330   15:30  999.0   999  999.0   999    999.0   999.0   999.00     999    999.0  999.0
 330   15:40   54.1    39    2.6   255      5.9   795.6    0.00      64    999.0  162.2
 330   15:50   54.1    40    2.2   264      5.3   795.7    0.00      49    999.0  162.1
 330   16:00   52.7    42    1.8   252      5.7   795.6    0.00      19    999.0  162.2
 330   16:10   52.2    42    2.1   268      3.9   795.6    0.00      20    999.0  162.0
 330   16:20   51.6    43    1.7   278      3.1   795.6    0.00      24    999.0  162.0
 330   16:30   50.9    43    1.5   274      3.4   795.6    0.00      11    999.0  162.0
 330   16:40   50.5    43    1.6   270      3.0   795.6    0.00       3    999.0  161.8
 330   16:50   50.0    44    1.5   271      2.9   795.6    0.00       1    999.0   72.3
 330   17:00   49.6    42    1.7   275      4.7   795.6    0.00       0    999.0   14.8
 330   17:10   49.7    37    2.2   260      5.0   795.6    0.00       0    999.0   44.2
 330   17:20   49.8    34    2.2   248      5.4   795.6    0.00       0    999.0  161.4
 330   17:30   49.6    36    2.1   274      4.5   795.6    0.00       0    999.0  161.6
 330   17:40   49.4    38    1.8   294      3.4   795.6    0.00       0    999.0  161.5
 330   17:50   49.2    38    1.8   282      3.0   795.5    0.00       0    999.0  161.2
 330   18:00   49.3    33    2.8   232      5.2   795.4    0.00       0    999.0  161.7
 330   18:10   49.4    32    2.7   226      4.7   795.4    0.00       0    999.0  161.7
 330   18:20   49.3    32    2.4   226      4.4   795.4    0.00       0    999.0  161.9
 330   18:30   49.7    32    3.1   233      6.2   795.4    0.00       0    999.0  162.0
 330   18:40   49.4    32    1.7   274      3.3   795.4    0.00       0    999.0  162.2
 330   18:50   49.2    31    2.5   229      5.7   795.4    0.00       0    999.0  162.2
 330   19:00   49.5    28    3.0   218      6.1   795.4    0.00       0    999.0  162.2
 330   19:10   49.4    28    1.9   221      4.4   795.4    0.00       0    999.0  162.2
 330   19:20   49.0    29    2.7   197      7.0   795.4    0.00       0    999.0  162.2
 330   19:30   48.6    29    2.3   203      6.4   795.4    0.00       0    999.0  162.2
 330   19:40   48.5    29    4.5   178      7.2   795.3    0.00       0    999.0  162.2
 330   19:50   48.6    29    3.8   183      6.9   795.3    0.00       0    999.0  162.2
 330   20:00   48.7    30    3.7   180      6.0   795.2    0.00       0    999.0  162.2
 330   20:10   48.5    29    4.0   189      7.5   795.2    0.00       0    999.0  162.2
 330   20:20   48.4    28    3.2   191      6.4   795.2    0.00       0    999.0  162.2
 330   20:30   48.1    28    3.6   187      8.6   795.2    0.00       0    999.0  162.2
 330   20:40   48.0    28    3.1   192      5.9   795.2    0.00       0    999.0  162.2
 330   20:50   47.9    28    4.3   177      6.2   795.2    0.00       0    999.0  162.2
 330   21:00   47.7    28    3.6   180      8.0   795.2    0.00       0    999.0  162.2
 330   21:10   47.7    27    4.7   179      8.7   795.2    0.00       0    999.0  162.2
 330   21:20   47.8    26    5.3   179     10.4   795.1    0.00       0    999.0  162.2
 330   21:30   47.8    26    6.0   175     10.6   795.1    0.00       0    999.0  162.2
 330   21:40   47.6    26    5.5   178      9.9   795.1    0.00       0    999.0  162.2
 330   21:50   47.4    26    3.6   195      8.1   795.2    0.00       0    999.0  162.2
 330   22:00   47.5    25    4.8   182     10.1   795.1    0.00       0    999.0  162.2
 330   22:10   47.6    25    3.9   197     10.4   795.1    0.00       0    999.0  162.2
 330   22:20   47.5    25    2.4   212      5.8   795.0    0.00       0    999.0  162.2
 330   22:30   47.2    25    3.2   196      6.9   794.9    0.00       0    999.0  162.2
 330   22:40   46.9    26    3.6   186      6.6   795.0    0.00       0    999.0  162.2
 330   22:50   46.7    26    3.1   194      7.1   794.9    0.00       0    999.0  162.2
 330   23:00   46.6    26    2.8   205      6.7   794.9    0.00       0    999.0  162.2
 330   23:10   46.6    26    2.3   219      8.0   794.9    0.00       0    999.0  162.2
 330   23:20   46.5    27    2.3   210      5.6   794.8    0.00       0    999.0  162.2
 330   23:30   46.3    27    2.3   210      6.2   794.8    0.00       0    999.0  162.2
 330   23:40   46.1    28    2.0   208      7.0   794.9    0.00       0    999.0  162.2
 330   23:50   45.9    29    3.1   193      7.0   794.8    0.00       0    999.0  162.2
 331    0:00   46.0    29    5.7   180     10.1   794.7    0.00       0    999.0  162.2
 331    0:10   46.2    29    6.3   178     12.0   794.6    0.00       0    999.0  162.2
 331    0:20   46.4    29    7.2   176     12.5   794.6    0.00       0    999.0  162.2
 331    0:30   46.5    28    8.3   168     15.5   794.5    0.00       0    999.0  162.2
 331    0:40   46.4    29    7.9   170     13.7   794.4    0.00       0    999.0  162.2
 331    0:50   46.3    29    6.7   176     11.5   794.4    0.00       0    999.0  162.2
 331    1:00   45.9    29    3.1   199      8.3   794.4    0.00       0    999.0  162.2
 331    1:10   45.9    29    4.3   186     11.7   794.3    0.00       0    999.0  162.2
 331    1:20   45.8    29    4.2   184      7.2   794.3    0.00       0    999.0  162.2
 331    1:30   46.0    29    5.4   182      8.8   794.3    0.00       0    999.0  162.2
 331    1:40   46.3    28    6.0   179     10.7   794.2    0.00       0    999.0  162.2
 331    1:50   46.5    28    7.5   175     14.6   794.1    0.00       0    999.0  162.2
 331    2:00   46.5    28    6.5   174     10.5   794.0    0.00       0    999.0  162.2
 331    2:10   46.2    29    6.9   173     10.6   794.1    0.00       0    999.0  162.2
 331    2:20   46.2    29    7.6   173     11.2   794.0    0.00       0    999.0  162.2
 331    2:30   46.4    28    7.9   168     12.8   793.9    0.00       0    999.0  162.2
 331    2:40   46.5    28    7.1   173     12.8   793.8    0.00       0    999.0  162.2
 331    2:50   46.6    29    6.3   180     11.2   793.7    0.00       0    999.0  162.2
 331    3:00   46.8    28    8.1   171     13.5   793.6    0.00       0    999.0  162.2
 331    3:10   46.6    29    3.8   194     10.1   793.5    0.00       0    999.0  162.2
 331    3:20   46.3    29    2.1   210      4.5   793.5    0.00       0    999.0  162.2
 331    3:30   46.3    29    2.2   216      6.2   793.4    0.00       0    999.0  162.2
 331    3:40   46.6    28    3.0   210      7.0   793.3    0.00       0    999.0  162.2
 331    3:50   47.0    28    3.2   222      9.1   793.4    0.00       0    999.0  162.2
 331    4:00   47.2    28    3.6   220      8.7   793.3    0.00       0    999.0  162.2
 331    4:10   47.0    28    2.4   224      5.3   793.2    0.00       0    999.0  162.2
 331    4:20   46.9    28    2.7   229      7.0   793.3    0.00       0    999.0  162.2
 331    4:30   46.8    28    3.1   218      6.6   793.3    0.00       0    999.0  162.2
 331    4:40   46.7    28    2.6   207      6.6   793.2    0.00       0    999.0  162.2
 331    4:50   46.4    29    2.8   198      6.0   793.1    0.00       0    999.0  162.2
 331    5:00   46.2    29    4.1   188      8.0   793.0    0.00       0    999.0  162.2
 331    5:10   46.2    29    3.6   198      8.6   793.0    0.00       0    999.0  162.2
 331    5:20   46.2    28    2.8   207      7.2   793.1    0.00       0    999.0  162.2
 331    5:30   46.2    28    2.2   219      6.8   793.1    0.00       0    999.0  162.2
 331    5:40   46.4    28    2.5   228      6.9   793.1    0.00       0    999.0  162.2
 331    5:50   46.5    28    3.3   220      6.6   793.1    0.00       0    999.0  162.2
 331    6:00   46.7    27    3.0   210      9.3   793.2    0.00       0    999.0  162.2
 331    6:10   46.2    28    2.9   198      7.8   793.1    0.00       0    999.0  162.2
 331    6:20   46.0    28    2.4   207      6.2   793.1    0.00       0    999.0  162.2
 331    6:30   46.2    28    2.5   226      5.8   793.1    0.00       0    999.0  162.2
 331    6:40   46.2    28    2.7   225      5.6   793.1    0.00       0    999.0  162.2
 331    6:50   46.2    28    2.8   230      5.7   793.2    0.00       1    999.0  162.2
 331    7:00   46.4    27    3.4   230      8.0   793.2    0.00       1    999.0  162.2
 331    7:10   46.6    27    3.2   226      6.2   793.2    0.00       2    999.0  162.2
 331    7:20   46.5    27    3.1   225      7.0   793.2    0.00       5    999.0  162.2
 331    7:30   46.5    27    2.8   220      8.0   793.2    0.00      11    999.0  162.2
 331    7:40   46.5    27    2.8   230      7.1   793.2    0.00      19    999.0  162.2
 331    7:50   46.6    27    3.0   228      8.3   793.3    0.00      27    999.0  162.2
 331    8:00   47.1    27    2.8   221      8.0   793.3    0.00      77    999.0  162.2
 331    8:10   48.6    27    2.2   235      7.5   793.3    0.00     118    999.0  162.2
 331    8:20   49.2    27    2.0   242      5.2   793.4    0.00      89    999.0  162.2
 331    8:30   49.4    27    2.5   242      6.6   793.5    0.00      63    999.0  162.2
 331    8:40   49.1    27    2.5   223      5.7   793.5    0.00      50    999.0  162.2
 331    8:50   49.1    27    2.2   229      6.4   793.4    0.00      58    999.0  162.2
 331    9:00   49.1    27    2.6   230      6.4   793.5    0.00      77    999.0  162.2
 331    9:10   49.3    27    2.5   215      5.3   793.6    0.00      68    999.0  162.2
 331    9:20   49.2    28    2.0   242      5.5   793.6    0.00      58    999.0  162.2
 331    9:30   49.0    28    1.7   232      4.7   793.6    0.00      53    999.0  162.2

Return to Alpha graphs page.


Western Regional Climate Center,wrcc@dri.edu